FDMS/MTS METAR and TAF weather

Enter ICAO airport designator
Station Type Date Time Source
FDMS METAR 2019/06/20 07:00 UTC NOAA

FDMS 200700Z 36005KT CAVOK 12/08 Q1033 NOSIG


Station Type Date Time Source
FDMS Decoded METAR 2019/06/20 07:00 UTC NOAA

Manzini / Matsapa Airport, Swaziland (FDMS) 26-32S 031-18E
Jun 20, 2019 - 03:00 AM EDT / 2019.06.20 0700 UTC
Wind: from the N (360 degrees) at 6 MPH (5 KT):0
Visibility: greater than 7 mile(s):0
Temperature: 53 F (12 C)
Dew Point: 46 F (8 C)
Relative Humidity: 76%
Pressure (altimeter): 30.50 in. Hg (1033 hPa)
ob: FDMS 200700Z 36005KT CAVOK 12/08 Q1033 NOSIG
cycle: 7

Station Type Date Time Source
FDMS TAF 2019/06/03 12:35 UTC NOAA

TAF FDMS 031000Z 0312/0418 12006KT CAVOK

Example: see airport list